sensor_id;sensor_type;location;lat;lon;timestamp;temperature;humidity
62339;DHT22;48368;53.406;6.214;2023-08-24T00:00:58;14.30;99.90
62339;DHT22;48368;53.406;6.214;2023-08-24T00:03:23;14.30;99.90
62339;DHT22;48368;53.406;6.214;2023-08-24T00:05:49;14.30;99.90
62339;DHT22;48368;53.406;6.214;2023-08-24T00:08:15;14.30;99.90
62339;DHT22;48368;53.406;6.214;2023-08-24T00:10:43;14.20;99.90
62339;DHT22;48368;53.406;6.214;2023-08-24T00:13:09;14.20;99.90
62339;DHT22;48368;53.406;6.214;2023-08-24T00:15:35;14.20;99.90
62339;DHT22;48368;53.406;6.214;2023-08-24T00:18:02;14.20;99.90
62339;DHT22;48368;53.406;6.214;2023-08-24T00:20:27;14.20;99.90
62339;DHT22;48368;53.406;6.214;2023-08-24T00:22:53;14.20;99.90
62339;DHT22;48368;53.406;6.214;2023-08-24T00:25:18;14.20;99.90
62339;DHT22;48368;53.406;6.214;2023-08-24T00:27:44;14.20;99.90
62339;DHT22;48368;53.406;6.214;2023-08-24T00:30:10;14.20;99.90
62339;DHT22;48368;53.406;6.214;2023-08-24T00:32:36;14.20;99.90
62339;DHT22;48368;53.406;6.214;2023-08-24T00:35:03;14.20;99.90
62339;DHT22;48368;53.406;6.214;2023-08-24T00:37:30;14.20;99.90
62339;DHT22;48368;53.406;6.214;2023-08-24T00:39:56;14.20;99.90
62339;DHT22;48368;53.406;6.214;2023-08-24T00:42:21;14.20;99.90
62339;DHT22;48368;53.406;6.214;2023-08-24T00:44:48;14.20;99.90
62339;DHT22;48368;53.406;6.214;2023-08-24T00:47:15;14.30;99.90
62339;DHT22;48368;53.406;6.214;2023-08-24T00:49:41;14.30;99.90
62339;DHT22;48368;53.406;6.214;2023-08-24T00:52:07;14.30;99.90
62339;DHT22;48368;53.406;6.214;2023-08-24T00:54:34;14.40;99.90
62339;DHT22;48368;53.406;6.214;2023-08-24T00:57:00;14.40;99.90
62339;DHT22;48368;53.406;6.214;2023-08-24T00:59:26;14.40;99.90
62339;DHT22;48368;53.406;6.214;2023-08-24T01:01:52;14.40;99.90
62339;DHT22;48368;53.406;6.214;2023-08-24T01:04:18;14.40;99.90
62339;DHT22;48368;53.406;6.214;2023-08-24T01:06:44;14.40;99.90
62339;DHT22;48368;53.406;6.214;2023-08-24T01:09:09;14.50;99.90
62339;DHT22;48368;53.406;6.214;2023-08-24T01:11:49;14.40;99.90
62339;DHT22;48368;53.406;6.214;2023-08-24T01:17:05;14.50;99.90
62339;DHT22;48368;53.406;6.214;2023-08-24T01:19:38;14.50;99.90
62339;DHT22;48368;53.406;6.214;2023-08-24T01:25:21;14.50;99.90
62339;DHT22;48368;53.406;6.214;2023-08-24T01:27:50;14.60;99.90
62339;DHT22;48368;53.406;6.214;2023-08-24T01:30:18;14.50;99.90
62339;DHT22;48368;53.406;6.214;2023-08-24T01:32:45;14.50;99.90
62339;DHT22;48368;53.406;6.214;2023-08-24T01:35:11;14.50;99.90
62339;DHT22;48368;53.406;6.214;2023-08-24T01:37:36;14.50;99.90
62339;DHT22;48368;53.406;6.214;2023-08-24T01:40:05;14.50;99.90
62339;DHT22;48368;53.406;6.214;2023-08-24T01:45:08;14.50;99.90
62339;DHT22;48368;53.406;6.214;2023-08-24T01:47:36;14.50;99.90
62339;DHT22;48368;53.406;6.214;2023-08-24T01:50:05;14.50;99.90
62339;DHT22;48368;53.406;6.214;2023-08-24T01:52:32;14.60;99.90
62339;DHT22;48368;53.406;6.214;2023-08-24T01:54:58;14.50;99.90
62339;DHT22;48368;53.406;6.214;2023-08-24T01:57:23;14.60;99.90
62339;DHT22;48368;53.406;6.214;2023-08-24T01:59:49;14.60;99.90
62339;DHT22;48368;53.406;6.214;2023-08-24T02:02:14;14.60;99.90
62339;DHT22;48368;53.406;6.214;2023-08-24T02:04:40;14.60;99.90
62339;DHT22;48368;53.406;6.214;2023-08-24T02:07:06;14.60;99.90
62339;DHT22;48368;53.406;6.214;2023-08-24T02:09:31;14.60;99.90
62339;DHT22;48368;53.406;6.214;2023-08-24T02:11:57;14.60;99.90
62339;DHT22;48368;53.406;6.214;2023-08-24T02:14:23;14.60;99.90
62339;DHT22;48368;53.406;6.214;2023-08-24T02:16:48;14.60;99.90
62339;DHT22;48368;53.406;6.214;2023-08-24T02:19:14;14.60;99.90
62339;DHT22;48368;53.406;6.214;2023-08-24T02:21:39;14.60;99.90
62339;DHT22;48368;53.406;6.214;2023-08-24T02:24:06;14.70;99.90
62339;DHT22;48368;53.406;6.214;2023-08-24T02:26:31;14.70;99.90
62339;DHT22;48368;53.406;6.214;2023-08-24T02:28:57;14.70;99.90
62339;DHT22;48368;53.406;6.214;2023-08-24T02:31:23;14.70;99.90
62339;DHT22;48368;53.406;6.214;2023-08-24T02:33:51;14.70;99.90
62339;DHT22;48368;53.406;6.214;2023-08-24T02:36:20;14.80;99.90
62339;DHT22;48368;53.406;6.214;2023-08-24T02:38:46;14.80;99.90
62339;DHT22;48368;53.406;6.214;2023-08-24T02:41:12;14.80;99.90
62339;DHT22;48368;53.406;6.214;2023-08-24T02:43:39;14.80;99.90
62339;DHT22;48368;53.406;6.214;2023-08-24T02:46:07;14.80;99.90
62339;DHT22;48368;53.406;6.214;2023-08-24T02:48:35;14.80;99.90
62339;DHT22;48368;53.406;6.214;2023-08-24T02:51:02;14.80;99.90
62339;DHT22;48368;53.406;6.214;2023-08-24T02:53:29;14.80;99.90
62339;DHT22;48368;53.406;6.214;2023-08-24T02:55:58;14.80;99.90
62339;DHT22;48368;53.406;6.214;2023-08-24T02:58:23;14.80;99.90
62339;DHT22;48368;53.406;6.214;2023-08-24T03:00:49;14.80;99.90
62339;DHT22;48368;53.406;6.214;2023-08-24T03:03:15;14.90;99.90
62339;DHT22;48368;53.406;6.214;2023-08-24T03:05:41;14.80;99.90
62339;DHT22;48368;53.406;6.214;2023-08-24T03:08:16;14.90;99.90
62339;DHT22;48368;53.406;6.214;2023-08-24T03:10:42;14.90;99.90
62339;DHT22;48368;53.406;6.214;2023-08-24T03:13:07;14.90;99.90
62339;DHT22;48368;53.406;6.214;2023-08-24T03:15:35;14.90;99.90
62339;DHT22;48368;53.406;6.214;2023-08-24T03:18:00;14.80;99.90
62339;DHT22;48368;53.406;6.214;2023-08-24T03:20:26;14.80;99.90
62339;DHT22;48368;53.406;6.214;2023-08-24T03:22:52;14.80;99.90
62339;DHT22;48368;53.406;6.214;2023-08-24T03:25:17;14.80;99.90
62339;DHT22;48368;53.406;6.214;2023-08-24T03:27:43;14.80;99.90
62339;DHT22;48368;53.406;6.214;2023-08-24T03:30:09;14.80;99.90
62339;DHT22;48368;53.406;6.214;2023-08-24T03:32:34;14.80;99.90
62339;DHT22;48368;53.406;6.214;2023-08-24T03:35:00;14.80;99.90
62339;DHT22;48368;53.406;6.214;2023-08-24T03:37:27;14.80;99.90
62339;DHT22;48368;53.406;6.214;2023-08-24T03:39:53;14.80;99.90
62339;DHT22;48368;53.406;6.214;2023-08-24T03:42:18;14.80;99.90
62339;DHT22;48368;53.406;6.214;2023-08-24T03:44:44;14.80;99.90
62339;DHT22;48368;53.406;6.214;2023-08-24T03:47:09;14.80;99.90
62339;DHT22;48368;53.406;6.214;2023-08-24T03:49:35;14.80;99.90
62339;DHT22;48368;53.406;6.214;2023-08-24T03:52:01;14.80;99.90
62339;DHT22;48368;53.406;6.214;2023-08-24T03:54:26;14.90;99.90
62339;DHT22;48368;53.406;6.214;2023-08-24T03:56:53;14.90;99.90
62339;DHT22;48368;53.406;6.214;2023-08-24T03:59:19;14.80;99.90
62339;DHT22;48368;53.406;6.214;2023-08-24T04:01:44;14.80;99.90
62339;DHT22;48368;53.406;6.214;2023-08-24T04:04:10;14.80;99.90
62339;DHT22;48368;53.406;6.214;2023-08-24T04:06:35;14.80;99.90
62339;DHT22;48368;53.406;6.214;2023-08-24T04:09:01;14.80;99.90
62339;DHT22;48368;53.406;6.214;2023-08-24T04:11:27;14.80;99.90
62339;DHT22;48368;53.406;6.214;2023-08-24T04:13:53;14.80;99.90
62339;DHT22;48368;53.406;6.214;2023-08-24T04:16:18;14.80;99.90
62339;DHT22;48368;53.406;6.214;2023-08-24T04:18:44;14.80;99.90
62339;DHT22;48368;53.406;6.214;2023-08-24T04:21:09;14.80;99.90
62339;DHT22;48368;53.406;6.214;2023-08-24T04:23:35;14.80;99.90
62339;DHT22;48368;53.406;6.214;2023-08-24T04:26:01;14.80;99.90
62339;DHT22;48368;53.406;6.214;2023-08-24T04:28:26;14.70;99.90
62339;DHT22;48368;53.406;6.214;2023-08-24T04:30:56;14.70;99.90
62339;DHT22;48368;53.406;6.214;2023-08-24T04:33:22;14.60;99.90
62339;DHT22;48368;53.406;6.214;2023-08-24T04:35:51;14.70;99.90
62339;DHT22;48368;53.406;6.214;2023-08-24T04:38:17;14.70;99.90
62339;DHT22;48368;53.406;6.214;2023-08-24T04:40:51;14.60;99.90
62339;DHT22;48368;53.406;6.214;2023-08-24T04:43:21;14.70;99.90
62339;DHT22;48368;53.406;6.214;2023-08-24T04:45:53;14.70;99.90
62339;DHT22;48368;53.406;6.214;2023-08-24T04:48:23;14.70;99.90
62339;DHT22;48368;53.406;6.214;2023-08-24T04:50:49;14.70;99.90
62339;DHT22;48368;53.406;6.214;2023-08-24T04:53:17;14.70;99.90
62339;DHT22;48368;53.406;6.214;2023-08-24T04:55:43;14.80;99.90
62339;DHT22;48368;53.406;6.214;2023-08-24T04:58:10;14.80;99.90
62339;DHT22;48368;53.406;6.214;2023-08-24T05:00:36;14.80;99.90
62339;DHT22;48368;53.406;6.214;2023-08-24T05:03:06;14.70;99.90
62339;DHT22;48368;53.406;6.214;2023-08-24T05:05:33;14.70;99.90
62339;DHT22;48368;53.406;6.214;2023-08-24T05:08:00;14.80;99.90
62339;DHT22;48368;53.406;6.214;2023-08-24T05:10:30;14.80;99.90
62339;DHT22;48368;53.406;6.214;2023-08-24T05:12:56;14.80;99.90
62339;DHT22;48368;53.406;6.214;2023-08-24T05:15:21;14.80;99.90
62339;DHT22;48368;53.406;6.214;2023-08-24T05:17:47;14.80;99.90
62339;DHT22;48368;53.406;6.214;2023-08-24T05:20:12;14.90;99.90
62339;DHT22;48368;53.406;6.214;2023-08-24T05:22:39;14.80;99.90
62339;DHT22;48368;53.406;6.214;2023-08-24T05:25:05;14.90;99.90
62339;DHT22;48368;53.406;6.214;2023-08-24T05:27:31;15.00;99.90
62339;DHT22;48368;53.406;6.214;2023-08-24T05:29:57;15.00;99.90
62339;DHT22;48368;53.406;6.214;2023-08-24T05:32:23;15.10;99.90
62339;DHT22;48368;53.406;6.214;2023-08-24T05:34:48;15.10;99.90
62339;DHT22;48368;53.406;6.214;2023-08-24T05:37:14;15.10;99.90
62339;DHT22;48368;53.406;6.214;2023-08-24T05:39:40;15.20;99.90
62339;DHT22;48368;53.406;6.214;2023-08-24T05:42:06;15.30;99.90
62339;DHT22;48368;53.406;6.214;2023-08-24T05:44:31;15.40;99.90
62339;DHT22;48368;53.406;6.214;2023-08-24T05:46:57;15.50;99.90
62339;DHT22;48368;53.406;6.214;2023-08-24T05:49:23;15.60;99.90
62339;DHT22;48368;53.406;6.214;2023-08-24T05:51:52;15.70;99.90
62339;DHT22;48368;53.406;6.214;2023-08-24T05:54:18;15.70;99.90
62339;DHT22;48368;53.406;6.214;2023-08-24T05:56:47;15.70;99.90
62339;DHT22;48368;53.406;6.214;2023-08-24T05:59:13;15.80;99.90
62339;DHT22;48368;53.406;6.214;2023-08-24T06:01:39;15.80;99.90
62339;DHT22;48368;53.406;6.214;2023-08-24T06:04:08;15.90;99.90
62339;DHT22;48368;53.406;6.214;2023-08-24T06:06:34;16.00;99.90
62339;DHT22;48368;53.406;6.214;2023-08-24T06:09:03;16.00;99.90
62339;DHT22;48368;53.406;6.214;2023-08-24T06:11:34;16.10;99.90
62339;DHT22;48368;53.406;6.214;2023-08-24T06:14:01;16.20;99.90
62339;DHT22;48368;53.406;6.214;2023-08-24T06:16:27;16.30;99.90
62339;DHT22;48368;53.406;6.214;2023-08-24T06:18:53;16.30;99.90
62339;DHT22;48368;53.406;6.214;2023-08-24T06:21:19;16.40;99.90
62339;DHT22;48368;53.406;6.214;2023-08-24T06:23:44;16.50;99.90
62339;DHT22;48368;53.406;6.214;2023-08-24T06:26:15;16.60;99.90
62339;DHT22;48368;53.406;6.214;2023-08-24T06:28:41;16.70;99.90
62339;DHT22;48368;53.406;6.214;2023-08-24T06:31:06;16.90;99.90
62339;DHT22;48368;53.406;6.214;2023-08-24T06:33:38;17.00;99.90
62339;DHT22;48368;53.406;6.214;2023-08-24T06:36:04;17.20;99.90
62339;DHT22;48368;53.406;6.214;2023-08-24T06:38:40;17.30;99.90
62339;DHT22;48368;53.406;6.214;2023-08-24T06:41:09;17.40;99.90
62339;DHT22;48368;53.406;6.214;2023-08-24T06:43:37;17.50;99.90
62339;DHT22;48368;53.406;6.214;2023-08-24T06:46:09;17.50;99.90
62339;DHT22;48368;53.406;6.214;2023-08-24T06:48:35;17.60;99.90
62339;DHT22;48368;53.406;6.214;2023-08-24T06:51:03;17.70;99.90
62339;DHT22;48368;53.406;6.214;2023-08-24T06:53:29;17.70;99.90
62339;DHT22;48368;53.406;6.214;2023-08-24T06:55:58;17.70;99.90
62339;DHT22;48368;53.406;6.214;2023-08-24T06:58:24;17.70;99.90
62339;DHT22;48368;53.406;6.214;2023-08-24T07:00:50;17.70;99.90
62339;DHT22;48368;53.406;6.214;2023-08-24T07:03:19;17.80;99.90
62339;DHT22;48368;53.406;6.214;2023-08-24T07:05:45;17.90;99.90
62339;DHT22;48368;53.406;6.214;2023-08-24T07:08:12;18.00;99.90
62339;DHT22;48368;53.406;6.214;2023-08-24T07:10:38;18.20;99.90
62339;DHT22;48368;53.406;6.214;2023-08-24T07:13:06;18.30;99.90
62339;DHT22;48368;53.406;6.214;2023-08-24T07:15:32;18.40;99.90
62339;DHT22;48368;53.406;6.214;2023-08-24T07:18:01;18.60;99.90
62339;DHT22;48368;53.406;6.214;2023-08-24T07:20:27;18.70;99.90
62339;DHT22;48368;53.406;6.214;2023-08-24T07:22:52;18.80;99.90
62339;DHT22;48368;53.406;6.214;2023-08-24T07:25:19;18.90;99.90
62339;DHT22;48368;53.406;6.214;2023-08-24T07:27:47;19.10;99.90
62339;DHT22;48368;53.406;6.214;2023-08-24T07:30:13;19.30;99.90
62339;DHT22;48368;53.406;6.214;2023-08-24T07:32:39;19.40;99.90
62339;DHT22;48368;53.406;6.214;2023-08-24T07:35:04;19.40;99.90
62339;DHT22;48368;53.406;6.214;2023-08-24T07:37:32;19.50;99.90
62339;DHT22;48368;53.406;6.214;2023-08-24T07:39:57;19.70;99.90
62339;DHT22;48368;53.406;6.214;2023-08-24T07:42:23;19.70;99.90
62339;DHT22;48368;53.406;6.214;2023-08-24T07:44:49;19.80;99.90
62339;DHT22;48368;53.406;6.214;2023-08-24T07:47:15;19.90;99.90
62339;DHT22;48368;53.406;6.214;2023-08-24T07:49:41;20.00;99.90
62339;DHT22;48368;53.406;6.214;2023-08-24T07:52:11;20.00;99.90
62339;DHT22;48368;53.406;6.214;2023-08-24T07:54:37;20.00;99.90
62339;DHT22;48368;53.406;6.214;2023-08-24T07:57:04;20.20;99.90
62339;DHT22;48368;53.406;6.214;2023-08-24T07:59:30;20.20;99.90
62339;DHT22;48368;53.406;6.214;2023-08-24T08:01:55;20.30;99.90
62339;DHT22;48368;53.406;6.214;2023-08-24T08:04:21;20.40;99.90
62339;DHT22;48368;53.406;6.214;2023-08-24T08:06:47;20.30;99.90
62339;DHT22;48368;53.406;6.214;2023-08-24T08:09:12;20.30;99.90
62339;DHT22;48368;53.406;6.214;2023-08-24T08:11:38;20.40;99.90
62339;DHT22;48368;53.406;6.214;2023-08-24T08:14:04;20.40;99.90
62339;DHT22;48368;53.406;6.214;2023-08-24T08:16:30;20.40;99.90
62339;DHT22;48368;53.406;6.214;2023-08-24T08:19:02;20.40;99.90
62339;DHT22;48368;53.406;6.214;2023-08-24T08:21:28;20.60;99.90
62339;DHT22;48368;53.406;6.214;2023-08-24T08:23:53;20.60;99.90
62339;DHT22;48368;53.406;6.214;2023-08-24T08:26:19;20.70;99.90
62339;DHT22;48368;53.406;6.214;2023-08-24T08:28:45;20.80;99.90
62339;DHT22;48368;53.406;6.214;2023-08-24T08:31:13;21.00;99.90
62339;DHT22;48368;53.406;6.214;2023-08-24T08:33:38;21.00;99.90
62339;DHT22;48368;53.406;6.214;2023-08-24T08:36:04;21.10;99.90
62339;DHT22;48368;53.406;6.214;2023-08-24T08:38:30;21.30;99.90
62339;DHT22;48368;53.406;6.214;2023-08-24T08:41:05;21.30;99.90
62339;DHT22;48368;53.406;6.214;2023-08-24T08:43:34;21.40;99.90
62339;DHT22;48368;53.406;6.214;2023-08-24T08:46:00;21.40;99.90
62339;DHT22;48368;53.406;6.214;2023-08-24T08:48:26;21.50;99.90
62339;DHT22;48368;53.406;6.214;2023-08-24T08:50:54;21.50;99.90
62339;DHT22;48368;53.406;6.214;2023-08-24T08:53:22;21.70;99.90
62339;DHT22;48368;53.406;6.214;2023-08-24T08:55:54;21.80;99.90
62339;DHT22;48368;53.406;6.214;2023-08-24T08:58:21;21.90;99.90
62339;DHT22;48368;53.406;6.214;2023-08-24T09:00:47;21.90;99.90
62339;DHT22;48368;53.406;6.214;2023-08-24T09:03:18;21.90;99.90
62339;DHT22;48368;53.406;6.214;2023-08-24T09:05:44;22.10;99.90
62339;DHT22;48368;53.406;6.214;2023-08-24T09:08:14;22.00;99.90
62339;DHT22;48368;53.406;6.214;2023-08-24T09:10:41;22.10;99.90
62339;DHT22;48368;53.406;6.214;2023-08-24T09:13:09;22.10;99.90
62339;DHT22;48368;53.406;6.214;2023-08-24T09:15:38;22.10;99.90
62339;DHT22;48368;53.406;6.214;2023-08-24T09:18:04;22.10;99.90
62339;DHT22;48368;53.406;6.214;2023-08-24T09:20:30;22.20;99.90
62339;DHT22;48368;53.406;6.214;2023-08-24T09:22:56;22.20;99.90
62339;DHT22;48368;53.406;6.214;2023-08-24T09:25:25;22.10;99.90
62339;DHT22;48368;53.406;6.214;2023-08-24T09:28:03;22.10;99.90
62339;DHT22;48368;53.406;6.214;2023-08-24T09:30:35;22.10;99.90
62339;DHT22;48368;53.406;6.214;2023-08-24T09:33:09;22.00;99.90
62339;DHT22;48368;53.406;6.214;2023-08-24T09:35:36;22.00;99.90
62339;DHT22;48368;53.406;6.214;2023-08-24T09:38:16;21.90;99.90
62339;DHT22;48368;53.406;6.214;2023-08-24T09:40:45;21.90;99.90
62339;DHT22;48368;53.406;6.214;2023-08-24T09:43:14;21.70;99.90
62339;DHT22;48368;53.406;6.214;2023-08-24T09:45:55;21.70;99.90
62339;DHT22;48368;53.406;6.214;2023-08-24T09:48:24;21.70;99.90
62339;DHT22;48368;53.406;6.214;2023-08-24T09:50:51;21.50;99.90
62339;DHT22;48368;53.406;6.214;2023-08-24T09:53:22;21.50;99.90
62339;DHT22;48368;53.406;6.214;2023-08-24T09:56:00;21.50;99.90
62339;DHT22;48368;53.406;6.214;2023-08-24T09:58:26;21.50;99.90
62339;DHT22;48368;53.406;6.214;2023-08-24T10:00:52;21.40;99.90
62339;DHT22;48368;53.406;6.214;2023-08-24T10:03:20;21.40;99.90
62339;DHT22;48368;53.406;6.214;2023-08-24T10:05:53;21.40;99.90
62339;DHT22;48368;53.406;6.214;2023-08-24T10:08:30;21.30;99.90
62339;DHT22;48368;53.406;6.214;2023-08-24T10:11:00;21.10;99.90
62339;DHT22;48368;53.406;6.214;2023-08-24T10:16:46;21.10;99.90
62339;DHT22;48368;53.406;6.214;2023-08-24T10:19:13;21.10;99.90
62339;DHT22;48368;53.406;6.214;2023-08-24T10:21:39;21.00;99.90
62339;DHT22;48368;53.406;6.214;2023-08-24T10:24:06;21.00;99.90
62339;DHT22;48368;53.406;6.214;2023-08-24T10:26:34;20.90;99.90
62339;DHT22;48368;53.406;6.214;2023-08-24T10:29:00;20.90;99.90
62339;DHT22;48368;53.406;6.214;2023-08-24T10:31:26;20.90;99.90
62339;DHT22;48368;53.406;6.214;2023-08-24T10:33:54;20.80;99.90
62339;DHT22;48368;53.406;6.214;2023-08-24T10:36:21;20.70;99.90
62339;DHT22;48368;53.406;6.214;2023-08-24T10:38:47;20.80;99.90
62339;DHT22;48368;53.406;6.214;2023-08-24T10:41:13;20.70;99.90
62339;DHT22;48368;53.406;6.214;2023-08-24T10:43:41;20.70;99.90
62339;DHT22;48368;53.406;6.214;2023-08-24T10:46:14;20.60;99.90
62339;DHT22;48368;53.406;6.214;2023-08-24T10:51:18;20.60;99.90
62339;DHT22;48368;53.406;6.214;2023-08-24T10:53:58;20.60;99.90
62339;DHT22;48368;53.406;6.214;2023-08-24T10:56:38;20.60;99.90
62339;DHT22;48368;53.406;6.214;2023-08-24T10:59:17;20.60;99.90
62339;DHT22;48368;53.406;6.214;2023-08-24T11:01:55;20.50;99.90
62339;DHT22;48368;53.406;6.214;2023-08-24T11:04:21;20.50;99.90
62339;DHT22;48368;53.406;6.214;2023-08-24T11:06:55;20.50;99.90
62339;DHT22;48368;53.406;6.214;2023-08-24T11:09:27;20.40;99.90
62339;DHT22;48368;53.406;6.214;2023-08-24T11:12:09;20.40;99.90
62339;DHT22;48368;53.406;6.214;2023-08-24T11:14:51;20.30;99.90
62339;DHT22;48368;53.406;6.214;2023-08-24T11:17:21;20.30;99.90
62339;DHT22;48368;53.406;6.214;2023-08-24T11:19:54;20.30;99.90
62339;DHT22;48368;53.406;6.214;2023-08-24T11:22:20;20.30;99.90
62339;DHT22;48368;53.406;6.214;2023-08-24T11:24:47;20.20;99.90
62339;DHT22;48368;53.406;6.214;2023-08-24T11:27:12;20.20;99.90
62339;DHT22;48368;53.406;6.214;2023-08-24T11:29:40;20.20;99.90
62339;DHT22;48368;53.406;6.214;2023-08-24T11:32:06;20.10;99.90
62339;DHT22;48368;53.406;6.214;2023-08-24T11:34:32;20.10;99.90
62339;DHT22;48368;53.406;6.214;2023-08-24T11:36:59;20.00;99.90
62339;DHT22;48368;53.406;6.214;2023-08-24T11:39:25;20.10;99.90
62339;DHT22;48368;53.406;6.214;2023-08-24T11:41:59;20.10;99.90
62339;DHT22;48368;53.406;6.214;2023-08-24T11:44:28;20.10;99.90
62339;DHT22;48368;53.406;6.214;2023-08-24T11:46:58;20.10;99.90
62339;DHT22;48368;53.406;6.214;2023-08-24T11:49:25;20.10;99.90
62339;DHT22;48368;53.406;6.214;2023-08-24T11:51:52;20.10;99.90
62339;DHT22;48368;53.406;6.214;2023-08-24T11:54:27;20.10;99.90
62339;DHT22;48368;53.406;6.214;2023-08-24T11:56:53;20.10;99.90
62339;DHT22;48368;53.406;6.214;2023-08-24T11:59:19;20.10;99.90
62339;DHT22;48368;53.406;6.214;2023-08-24T12:01:45;20.10;99.90
62339;DHT22;48368;53.406;6.214;2023-08-24T12:04:12;20.20;99.90
62339;DHT22;48368;53.406;6.214;2023-08-24T12:06:38;20.10;99.90
62339;DHT22;48368;53.406;6.214;2023-08-24T12:09:06;20.10;99.90
62339;DHT22;48368;53.406;6.214;2023-08-24T12:11:36;20.10;99.90
62339;DHT22;48368;53.406;6.214;2023-08-24T12:14:02;20.20;99.90
62339;DHT22;48368;53.406;6.214;2023-08-24T12:16:33;20.10;99.90
62339;DHT22;48368;53.406;6.214;2023-08-24T12:19:03;20.20;99.90
62339;DHT22;48368;53.406;6.214;2023-08-24T12:21:43;20.20;99.90
62339;DHT22;48368;53.406;6.214;2023-08-24T12:24:13;20.10;99.90
62339;DHT22;48368;53.406;6.214;2023-08-24T12:26:39;20.10;99.90
62339;DHT22;48368;53.406;6.214;2023-08-24T12:29:07;20.20;99.90
62339;DHT22;48368;53.406;6.214;2023-08-24T12:31:34;20.20;99.90
62339;DHT22;48368;53.406;6.214;2023-08-24T12:34:06;20.20;99.90
62339;DHT22;48368;53.406;6.214;2023-08-24T12:36:36;20.10;99.90
62339;DHT22;48368;53.406;6.214;2023-08-24T12:39:02;20.10;99.90
62339;DHT22;48368;53.406;6.214;2023-08-24T12:41:33;20.10;99.90
62339;DHT22;48368;53.406;6.214;2023-08-24T12:43:59;20.10;99.90
62339;DHT22;48368;53.406;6.214;2023-08-24T12:46:24;20.20;99.90
62339;DHT22;48368;53.406;6.214;2023-08-24T12:48:50;20.10;99.90
62339;DHT22;48368;53.406;6.214;2023-08-24T12:51:16;20.10;99.90
62339;DHT22;48368;53.406;6.214;2023-08-24T12:53:43;20.20;99.90
62339;DHT22;48368;53.406;6.214;2023-08-24T12:56:08;20.20;99.90
62339;DHT22;48368;53.406;6.214;2023-08-24T12:58:34;20.20;99.90
62339;DHT22;48368;53.406;6.214;2023-08-24T13:01:00;20.10;99.90
62339;DHT22;48368;53.406;6.214;2023-08-24T13:03:26;20.10;99.90
62339;DHT22;48368;53.406;6.214;2023-08-24T13:05:54;20.20;99.90
62339;DHT22;48368;53.406;6.214;2023-08-24T13:08:20;20.20;99.90
62339;DHT22;48368;53.406;6.214;2023-08-24T13:10:45;20.10;99.90
62339;DHT22;48368;53.406;6.214;2023-08-24T13:13:11;20.20;99.90
62339;DHT22;48368;53.406;6.214;2023-08-24T13:15:36;20.20;99.90
62339;DHT22;48368;53.406;6.214;2023-08-24T13:18:02;20.20;99.90
62339;DHT22;48368;53.406;6.214;2023-08-24T13:20:28;20.20;99.90
62339;DHT22;48368;53.406;6.214;2023-08-24T13:22:53;20.20;99.90
62339;DHT22;48368;53.406;6.214;2023-08-24T13:25:19;20.20;99.90
62339;DHT22;48368;53.406;6.214;2023-08-24T13:27:45;20.20;99.90
62339;DHT22;48368;53.406;6.214;2023-08-24T13:30:11;20.10;99.90
62339;DHT22;48368;53.406;6.214;2023-08-24T13:32:36;20.20;99.90
62339;DHT22;48368;53.406;6.214;2023-08-24T13:35:03;20.10;99.90
62339;DHT22;48368;53.406;6.214;2023-08-24T13:37:28;20.20;99.90
62339;DHT22;48368;53.406;6.214;2023-08-24T13:39:54;20.10;99.90
62339;DHT22;48368;53.406;6.214;2023-08-24T13:42:23;20.10;99.90
62339;DHT22;48368;53.406;6.214;2023-08-24T13:44:49;20.10;99.90
62339;DHT22;48368;53.406;6.214;2023-08-24T13:47:14;20.10;99.90
62339;DHT22;48368;53.406;6.214;2023-08-24T13:49:41;20.20;99.90
62339;DHT22;48368;53.406;6.214;2023-08-24T13:52:08;20.10;99.90
62339;DHT22;48368;53.406;6.214;2023-08-24T13:54:37;20.10;99.90
62339;DHT22;48368;53.406;6.214;2023-08-24T13:57:02;20.10;99.90
62339;DHT22;48368;53.406;6.214;2023-08-24T13:59:28;20.00;99.90
62339;DHT22;48368;53.406;6.214;2023-08-24T14:01:57;20.10;99.90
62339;DHT22;48368;53.406;6.214;2023-08-24T14:04:23;20.00;99.90
62339;DHT22;48368;53.406;6.214;2023-08-24T14:06:48;20.00;99.90
62339;DHT22;48368;53.406;6.214;2023-08-24T14:09:14;20.00;99.90
62339;DHT22;48368;53.406;6.214;2023-08-24T14:11:40;20.00;99.90
62339;DHT22;48368;53.406;6.214;2023-08-24T14:14:05;19.90;99.90
62339;DHT22;48368;53.406;6.214;2023-08-24T14:16:31;19.90;99.90
62339;DHT22;48368;53.406;6.214;2023-08-24T14:18:56;20.00;99.90
62339;DHT22;48368;53.406;6.214;2023-08-24T14:21:22;20.00;99.90
62339;DHT22;48368;53.406;6.214;2023-08-24T14:23:51;19.90;99.90
62339;DHT22;48368;53.406;6.214;2023-08-24T14:26:17;19.90;99.90
62339;DHT22;48368;53.406;6.214;2023-08-24T14:31:16;19.80;99.90
62339;DHT22;48368;53.406;6.214;2023-08-24T14:33:42;19.80;99.90
62339;DHT22;48368;53.406;6.214;2023-08-24T14:36:09;19.70;99.90
62339;DHT22;48368;53.406;6.214;2023-08-24T14:38:34;19.80;99.90
62339;DHT22;48368;53.406;6.214;2023-08-24T14:41:01;19.80;99.90
62339;DHT22;48368;53.406;6.214;2023-08-24T14:43:30;19.70;99.90
62339;DHT22;48368;53.406;6.214;2023-08-24T14:45:55;19.70;99.90
62339;DHT22;48368;53.406;6.214;2023-08-24T14:48:21;19.80;99.90
62339;DHT22;48368;53.406;6.214;2023-08-24T14:50:47;19.80;99.90
62339;DHT22;48368;53.406;6.214;2023-08-24T14:53:12;19.80;99.90
62339;DHT22;48368;53.406;6.214;2023-08-24T14:55:38;19.60;99.90
62339;DHT22;48368;53.406;6.214;2023-08-24T14:58:04;19.70;99.90
62339;DHT22;48368;53.406;6.214;2023-08-24T15:00:33;19.60;99.90
62339;DHT22;48368;53.406;6.214;2023-08-24T15:02:59;19.70;99.90
62339;DHT22;48368;53.406;6.214;2023-08-24T15:05:24;19.70;99.90
62339;DHT22;48368;53.406;6.214;2023-08-24T15:07:50;19.70;99.90
62339;DHT22;48368;53.406;6.214;2023-08-24T15:10:17;19.70;99.90
62339;DHT22;48368;53.406;6.214;2023-08-24T15:12:46;19.60;99.90
62339;DHT22;48368;53.406;6.214;2023-08-24T15:15:15;19.80;99.90
62339;DHT22;48368;53.406;6.214;2023-08-24T15:17:43;19.80;99.90
62339;DHT22;48368;53.406;6.214;2023-08-24T15:20:10;19.70;99.90
62339;DHT22;48368;53.406;6.214;2023-08-24T15:22:38;19.70;99.90
62339;DHT22;48368;53.406;6.214;2023-08-24T15:25:05;19.70;99.90
62339;DHT22;48368;53.406;6.214;2023-08-24T15:27:31;19.80;99.90
62339;DHT22;48368;53.406;6.214;2023-08-24T15:29:57;19.70;99.90
62339;DHT22;48368;53.406;6.214;2023-08-24T15:32:25;19.70;99.90
62339;DHT22;48368;53.406;6.214;2023-08-24T15:34:51;19.70;99.90
62339;DHT22;48368;53.406;6.214;2023-08-24T15:37:19;19.70;99.90
62339;DHT22;48368;53.406;6.214;2023-08-24T15:39:45;19.70;99.90
62339;DHT22;48368;53.406;6.214;2023-08-24T15:42:12;19.60;99.90
62339;DHT22;48368;53.406;6.214;2023-08-24T15:44:38;19.70;99.90
62339;DHT22;48368;53.406;6.214;2023-08-24T15:47:04;19.70;99.90